Time;durP1;ratioP1;P1;durP2;ratioP2;P2;SDS_P1;SDS_P2;PMS_P1;PMS_P2;Temp;Humidity;BMP_temperature;BMP_pressure;BME280_temperature;BME280_humidity;BME280_pressure;Samples;Min_cycle;Max_cycle;Signal;HPM_P1;HPM_P2
2021/11/24 00:01:38;;;;;;;36.40;22.33;;;;;;;9.24;80.77;100898.47;5049057;28;20394;-21
2021/11/24 00:04:04;;;;;;;36.45;21.83;;;;;;;9.13;81.38;100888.31;5049154;28;20033;-20
2021/11/24 00:06:29;;;;;;;41.78;23.35;;;;;;;9.21;81.91;100903.34;5049505;28;20041;-20
2021/11/24 00:08:54;;;;;;;35.42;22.02;;;;;;;9.40;80.98;100909.91;5048898;28;20028;-21
2021/11/24 00:11:20;;;;;;;38.35;24.38;;;;;;;9.20;81.60;100901.72;5048937;28;20047;-20
2021/11/24 00:13:45;;;;;;;42.78;26.65;;;;;;;9.40;81.25;100901.91;5049110;28;20056;-21
2021/11/24 00:16:11;;;;;;;42.67;25.30;;;;;;;9.70;80.00;100901.75;5048706;28;20056;-22
2021/11/24 00:18:37;;;;;;;41.50;23.40;;;;;;;10.03;78.74;100907.31;5048829;28;20032;-21
2021/11/24 00:21:03;;;;;;;39.42;23.52;;;;;;;10.26;77.50;100912.41;5048981;28;20120;-21
2021/11/24 00:23:28;;;;;;;40.85;23.70;;;;;;;10.51;76.76;100919.94;5049266;28;20072;-20
2021/11/24 00:25:54;;;;;;;36.05;22.10;;;;;;;10.24;77.33;100917.91;5048993;28;20040;-21
2021/11/24 00:28:19;;;;;;;34.35;21.92;;;;;;;10.20;77.04;100913.19;5048565;28;20028;-21
2021/11/24 00:30:46;;;;;;;37.80;21.70;;;;;;;10.22;77.18;100906.63;5030934;28;20033;-21
2021/11/24 00:33:12;;;;;;;34.37;21.70;;;;;;;10.32;76.68;100916.97;5047905;28;20024;-21
2021/11/24 00:35:39;;;;;;;34.45;20.52;;;;;;;10.18;77.07;100915.22;5048838;28;20032;-20
2021/11/24 00:38:04;;;;;;;39.25;21.52;;;;;;;10.08;78.22;100909.41;5048628;28;20417;-21
2021/11/24 00:40:30;;;;;;;31.58;21.25;;;;;;;10.15;77.39;100911.09;5048382;28;20073;-21
2021/11/24 00:42:55;;;;;;;34.17;21.83;;;;;;;10.16;77.70;100917.25;5049013;28;20788;-21
2021/11/24 00:45:22;;;;;;;33.00;20.00;;;;;;;10.14;77.71;100916.63;5048524;28;20033;-21
2021/11/24 00:47:48;;;;;;;31.83;20.85;;;;;;;10.33;77.15;100913.28;5048511;28;20047;-20
2021/11/24 00:50:14;;;;;;;32.63;20.17;;;;;;;10.57;75.86;100914.66;5048187;28;20028;-20
2021/11/24 00:52:39;;;;;;;33.60;20.10;;;;;;;10.41;76.72;100910.44;5048228;28;20405;-20
2021/11/24 00:55:05;;;;;;;32.58;19.92;;;;;;;10.34;76.57;100906.94;5048417;28;20033;-20
2021/11/24 00:57:30;;;;;;;34.65;20.40;;;;;;;10.52;76.31;100914.44;5048393;28;20021;-20
2021/11/24 00:59:56;;;;;;;35.63;21.63;;;;;;;10.77;75.25;100909.41;5048301;28;20033;-20
2021/11/24 01:02:21;;;;;;;34.70;20.70;;;;;;;10.88;74.82;100912.53;5048213;28;20489;-21
2021/11/24 01:04:47;;;;;;;34.22;20.33;;;;;;;10.61;75.23;100899.06;5048499;28;20029;-21
2021/11/24 01:07:12;;;;;;;33.05;21.13;;;;;;;10.59;75.64;100917.94;5030621;28;20385;-21
2021/11/24 01:09:38;;;;;;;35.58;21.13;;;;;;;10.62;75.61;100912.22;5048469;28;20029;-21
2021/11/24 01:12:04;;;;;;;40.65;22.83;;;;;;;10.41;76.65;100910.44;5030160;28;20025;-20
2021/11/24 01:14:29;;;;;;;34.35;20.65;;;;;;;10.31;77.24;100914.50;5029986;28;20072;-20
2021/11/24 01:16:54;;;;;;;35.03;20.50;;;;;;;10.15;78.00;100910.25;5048531;28;20036;-20
2021/11/24 01:19:20;;;;;;;39.40;22.13;;;;;;;10.16;77.76;100918.06;5047986;28;20036;-20
2021/11/24 01:21:46;;;;;;;33.67;19.15;;;;;;;10.26;77.65;100915.06;5047912;28;20063;-20
2021/11/24 01:24:12;;;;;;;31.10;21.00;;;;;;;10.16;77.53;100906.59;5030617;28;20476;-20
2021/11/24 01:26:37;;;;;;;33.78;20.50;;;;;;;10.10;77.38;100913.53;5048112;28;20039;-21
2021/11/24 01:29:03;;;;;;;37.53;22.58;;;;;;;10.30;77.16;100905.69;5048191;28;20409;-20
2021/11/24 01:31:29;;;;;;;33.15;20.50;;;;;;;10.23;77.36;100912.78;5030199;28;20025;-20
2021/11/24 01:33:54;;;;;;;37.10;20.27;;;;;;;10.62;75.45;100900.72;5047847;28;20026;-20
2021/11/24 01:36:20;;;;;;;30.83;20.23;;;;;;;10.49;75.72;100909.47;5047635;28;20033;-21
2021/11/24 01:38:46;;;;;;;38.05;20.83;;;;;;;10.23;76.44;100891.44;5047948;28;20032;-21
2021/11/24 01:41:12;;;;;;;33.10;19.98;;;;;;;10.36;76.62;100902.25;5048181;28;20031;-22
2021/11/24 01:43:38;;;;;;;34.42;20.77;;;;;;;10.21;76.21;100907.63;5049811;28;20052;-22
2021/11/24 01:46:03;;;;;;;34.00;20.33;;;;;;;9.86;77.77;100901.47;5052099;28;20813;-21
2021/11/24 01:48:29;;;;;;;31.45;19.17;;;;;;;9.46;79.51;100893.16;5051713;28;20032;-21
2021/11/24 01:50:55;;;;;;;30.92;19.52;;;;;;;9.83;78.29;100901.84;5033725;28;20033;-22
2021/11/24 01:53:21;;;;;;;28.95;18.50;;;;;;;9.78;77.72;100889.09;5051658;28;20115;-21
2021/11/24 01:55:46;;;;;;;30.75;19.25;;;;;;;10.22;76.65;100905.81;5033982;28;20033;-20
2021/11/24 01:58:12;;;;;;;28.17;18.27;;;;;;;9.69;78.16;100906.25;5051691;28;20025;-21
2021/11/24 02:00:38;;;;;;;32.97;20.13;;;;;;;9.58;78.27;100888.97;5033626;28;20075;-21
2021/11/24 02:03:05;;;;;;;28.73;18.73;;;;;;;9.74;78.57;100905.66;5033796;28;20113;-21
2021/11/24 02:05:30;;;;;;;29.98;18.77;;;;;;;9.57;78.59;100897.94;5033995;28;20123;-20
2021/11/24 02:07:56;;;;;;;30.38;19.77;;;;;;;9.82;77.27;100906.34;5051762;28;20120;-20
2021/11/24 02:10:22;;;;;;;32.35;19.10;;;;;;;9.78;77.35;100904.25;5033598;28;20401;-20
2021/11/24 02:12:47;;;;;;;30.45;18.65;;;;;;;9.54;78.24;100882.38;5051671;28;20453;-21
2021/11/24 02:15:13;;;;;;;34.20;19.35;;;;;;;9.58;78.32;100894.28;5051378;28;20087;-21
2021/11/24 02:17:38;;;;;;;29.15;19.35;;;;;;;9.19;79.48;100890.25;5051246;28;20459;-20
2021/11/24 02:20:04;;;;;;;33.40;19.70;;;;;;;9.20;79.53;100907.84;5051148;28;20040;-21
2021/11/24 02:22:30;;;;;;;38.20;22.13;;;;;;;9.21;79.74;100898.88;5051102;28;20114;-21
2021/11/24 02:24:55;;;;;;;41.70;23.35;;;;;;;9.18;80.02;100903.72;5051718;28;20489;-20
2021/11/24 02:27:22;;;;;;;40.38;24.17;;;;;;;9.62;78.52;100913.34;5051351;28;20057;-20
2021/11/24 02:29:48;;;;;;;38.20;21.60;;;;;;;9.48;78.71;100896.44;5050978;28;20422;-21
2021/11/24 02:32:14;;;;;;;36.38;21.73;;;;;;;9.46;78.73;100909.13;5050748;28;20136;-20
2021/11/24 02:34:40;;;;;;;35.05;21.15;;;;;;;9.24;79.62;100898.47;5051055;28;20025;-21
2021/11/24 02:37:05;;;;;;;42.42;22.98;;;;;;;9.56;78.65;100906.13;5050965;28;20460;-20
2021/11/24 02:39:31;;;;;;;47.17;24.88;;;;;;;9.75;77.63;100910.81;5051536;28;20438;-20
2021/11/24 02:41:57;;;;;;;35.92;21.17;;;;;;;9.51;78.11;100909.38;5050722;28;20070;-20
2021/11/24 02:44:35;;;;;;;39.38;23.23;;;;;;;9.69;78.10;100910.75;5050683;28;20025;-20
2021/11/24 02:47:12;;;;;;;46.55;25.33;;;;;;;9.59;78.13;100909.22;5050684;28;20028;-21
2021/11/24 02:49:39;;;;;;;41.33;23.25;;;;;;;9.67;77.62;100910.13;5033958;28;20559;-20
2021/11/24 02:52:05;;;;;;;36.83;22.67;;;;;;;9.87;76.90;100911.13;5050529;28;20413;-20
2021/11/24 02:54:30;;;;;;;35.25;20.77;;;;;;;9.70;77.20;100907.06;5032106;28;20036;-21
2021/11/24 02:56:59;;;;;;;34.58;19.55;;;;;;;9.28;78.10;100898.09;5050313;28;20032;-20
2021/11/24 02:59:24;;;;;;;35.72;20.90;;;;;;;9.65;78.19;100916.47;5050503;28;20064;-21
2021/11/24 03:01:50;;;;;;;37.25;21.45;;;;;;;9.47;78.48;100924.06;5050424;28;20037;-21
2021/11/24 03:04:16;;;;;;;34.22;20.13;;;;;;;9.27;78.61;100897.25;5050183;28;20079;-21
2021/11/24 03:06:41;;;;;;;33.83;21.45;;;;;;;9.20;79.05;100918.50;5050489;28;20486;-20
2021/11/24 03:09:07;;;;;;;37.42;22.33;;;;;;;9.17;79.77;100913.53;5032444;28;20029;-20
2021/11/24 03:11:32;;;;;;;34.30;20.50;;;;;;;9.34;78.91;100923.97;5050561;28;20044;-21
2021/11/24 03:13:58;;;;;;;30.95;19.63;;;;;;;9.21;79.22;100928.13;5049997;28;20040;-21
2021/11/24 03:16:24;;;;;;;33.10;20.83;;;;;;;9.22;79.67;100931.63;5050110;28;20049;-21
2021/11/24 03:18:49;;;;;;;34.15;21.55;;;;;;;9.57;78.06;100929.09;5050484;28;20051;-20
2021/11/24 03:21:15;;;;;;;34.17;19.40;;;;;;;9.30;78.46;100918.19;5050433;28;20040;-21
2021/11/24 03:23:40;;;;;;;32.58;20.33;;;;;;;9.43;77.67;100928.94;5050026;28;20044;-22
2021/11/24 03:26:06;;;;;;;31.55;18.65;;;;;;;9.36;78.46;100932.59;5050077;28;20108;-21
2021/11/24 03:28:31;;;;;;;34.67;20.40;;;;;;;9.11;79.31;100945.41;5049665;28;20029;-20
2021/11/24 03:30:57;;;;;;;31.80;19.10;;;;;;;8.79;80.02;100927.03;5050106;28;20086;-20
2021/11/24 03:33:22;;;;;;;34.60;21.80;;;;;;;8.72;81.38;100955.38;5049715;28;20032;-21
2021/11/24 03:35:48;;;;;;;34.78;21.75;;;;;;;8.85;81.51;100947.56;5050137;28;20396;-20
2021/11/24 03:38:13;;;;;;;67.03;37.80;;;;;;;8.88;81.20;100946.38;5049587;28;20036;-22
2021/11/24 03:40:39;;;;;;;49.17;28.55;;;;;;;8.89;80.30;100957.81;5049800;28;20021;-20
2021/11/24 03:43:04;;;;;;;47.00;26.83;;;;;;;8.88;80.42;100961.50;5049718;28;20029;-20
2021/11/24 03:45:33;;;;;;;67.20;34.90;;;;;;;8.80;81.16;100968.56;5049716;28;20033;-21
2021/11/24 03:47:58;;;;;;;;;;;;;;;8.92;80.35;100966.25;5032562;28;20123;-20
2021/11/24 03:50:23;;;;;;;57.33;30.33;;;;;;;9.07;79.89;100970.72;5049424;28;19996;-20
2021/11/24 03:52:49;;;;;;;76.03;36.13;;;;;;;9.41;78.48;100978.09;5049422;28;20489;-20
2021/11/24 03:55:15;;;;;;;83.05;42.90;;;;;;;9.30;78.57;100975.94;5049559;28;20087;-21
2021/11/24 03:57:40;;;;;;;84.03;55.90;;;;;;;9.28;79.01;100983.28;5049535;28;20496;-20
2021/11/24 04:00:13;;;;;;;39.97;25.83;;;;;;;9.08;79.56;100967.88;5049445;28;20040;-20
2021/11/24 04:02:38;;;;;;;43.30;26.35;;;;;;;9.00;80.24;100991.94;5049360;28;20132;-20
2021/11/24 04:05:05;;;;;;;47.58;28.65;;;;;;;9.04;79.37;100987.91;5049491;28;20482;-21
2021/11/24 04:07:31;;;;;;;30.63;19.42;;;;;;;8.97;79.68;100997.63;5048142;28;20032;-21
2021/11/24 04:09:56;;;;;;;34.45;20.85;;;;;;;8.78;80.78;100993.69;5049247;28;20033;-22
2021/11/24 04:12:22;;;;;;;45.67;29.23;;;;;;;8.65;81.43;100995.16;5049095;28;20025;-20
2021/11/24 04:14:47;;;;;;;41.58;26.23;;;;;;;8.49;82.20;100973.25;5049123;28;20567;-21
2021/11/24 04:17:13;;;;;;;45.30;26.15;;;;;;;8.59;81.83;100998.56;5049041;28;20036;-21
2021/11/24 04:19:39;;;;;;;40.83;23.73;;;;;;;8.76;81.04;101001.03;5048908;28;20029;-20
2021/11/24 04:22:06;;;;;;;45.15;27.50;;;;;;;8.52;82.56;101012.75;5048951;28;20028;-20
2021/11/24 04:24:32;;;;;;;41.40;24.45;;;;;;;8.29;83.20;100997.66;5048605;28;20036;-20
2021/11/24 04:26:58;;;;;;;38.20;23.98;;;;;;;8.30;83.68;101007.31;5049003;28;20374;-21
2021/11/24 04:29:23;;;;;;;37.63;22.15;;;;;;;8.51;82.87;100997.84;5049051;28;20039;-20
2021/11/24 04:31:48;;;;;;;33.70;20.70;;;;;;;8.68;82.10;101015.25;5047792;28;20555;-20
2021/11/24 04:34:14;;;;;;;30.95;18.50;;;;;;;8.72;81.67;101026.34;5048509;28;20033;-21
2021/11/24 04:36:39;;;;;;;31.88;17.75;;;;;;;8.39;82.21;101010.72;5048962;28;20070;-20
2021/11/24 04:39:05;;;;;;;32.88;17.67;;;;;;;8.17;83.94;101025.69;5048927;28;20485;-20
2021/11/24 04:41:30;;;;;;;33.90;18.00;;;;;;;8.36;84.00;101033.16;5048682;28;20033;-21
2021/11/24 04:43:56;;;;;;;29.38;17.45;;;;;;;8.38;83.70;101025.03;5048676;28;20098;-21
2021/11/24 04:46:22;;;;;;;30.63;18.55;;;;;;;8.39;83.40;101038.09;5048312;28;20494;-21
2021/11/24 04:48:47;;;;;;;33.67;19.30;;;;;;;8.57;82.54;101013.06;5048606;28;20037;-21
2021/11/24 04:51:13;;;;;;;29.45;16.77;;;;;;;8.57;82.63;101034.31;5048913;28;20335;-20
2021/11/24 04:53:38;;;;;;;49.63;27.50;;;;;;;8.57;82.70;101023.69;5048602;28;20710;-20
2021/11/24 04:56:04;;;;;;;38.47;23.45;;;;;;;8.77;82.42;101035.44;5030788;28;20037;-21
2021/11/24 04:58:29;;;;;;;42.75;24.92;;;;;;;8.90;81.75;101033.97;5030301;28;20031;-20
2021/11/24 05:00:55;;;;;;;43.22;25.83;;;;;;;8.99;81.32;101027.53;5048187;28;20488;-21
2021/11/24 05:03:21;;;;;;;63.55;40.38;;;;;;;8.97;80.40;101018.91;5048288;28;20032;-20
2021/11/24 05:05:47;;;;;;;37.25;22.52;;;;;;;9.04;80.61;101041.13;5030369;28;20025;-20
2021/11/24 05:08:12;;;;;;;58.35;37.90;;;;;;;8.68;81.88;101030.38;5048221;28;20032;-21
2021/11/24 05:10:38;;;;;;;74.97;49.88;;;;;;;8.74;81.42;101045.59;5048497;28;20079;-21
2021/11/24 05:13:07;;;;;;;62.88;39.35;;;;;;;8.72;82.05;101053.75;5048234;28;20098;-20
2021/11/24 05:15:34;;;;;;;57.40;35.10;;;;;;;8.56;82.14;101043.28;5030228;28;20053;-21
2021/11/24 05:18:03;;;;;;;43.05;25.67;;;;;;;8.79;81.25;101062.69;5047808;28;20027;-21
2021/11/24 05:20:30;;;;;;;34.92;19.98;;;;;;;8.79;81.84;101052.03;5048011;28;20136;-21
2021/11/24 05:22:59;;;;;;;44.10;22.90;;;;;;;8.90;81.00;101049.94;5048119;28;20576;-21
2021/11/24 05:25:25;;;;;;;43.72;20.08;;;;;;;8.80;81.79;101061.66;5048197;28;20279;-21
2021/11/24 05:27:51;;;;;;;39.22;19.00;;;;;;;8.87;82.44;101067.09;5048030;28;20463;-20
2021/11/24 05:30:16;;;;;;;34.25;18.27;;;;;;;8.91;81.90;101072.84;5047827;28;20033;-20
2021/11/24 05:32:42;;;;;;;31.27;16.98;;;;;;;8.74;81.98;101059.72;5048115;28;20487;-20
2021/11/24 05:35:07;;;;;;;28.33;16.30;;;;;;;9.00;80.96;101069.09;5047910;28;20061;-21
2021/11/24 05:37:33;;;;;;;28.42;15.90;;;;;;;9.27;79.61;101078.25;5047898;28;20037;-20
2021/11/24 05:39:58;;;;;;;31.42;15.40;;;;;;;9.20;80.50;101080.84;5047981;28;20037;-21
2021/11/24 05:42:25;;;;;;;33.15;19.65;;;;;;;9.10;80.11;101090.94;5047892;28;20022;-20
2021/11/24 05:45:01;;;;;;;27.77;15.98;;;;;;;9.01;81.07;101090.22;5047989;28;20484;-20
2021/11/24 05:50:10;;;;;;;29.05;16.30;;;;;;;8.98;81.47;101087.09;5047664;28;20083;-21
2021/11/24 05:52:35;;;;;;;37.45;17.92;;;;;;;8.94;81.86;101093.78;5047827;28;20029;-21
2021/11/24 05:55:01;;;;;;;36.40;20.33;;;;;;;9.18;81.53;101100.66;5047923;28;20032;-20
2021/11/24 05:57:26;;;;;;;37.08;20.52;;;;;;;9.60;80.20;101099.97;5047738;28;20041;-20
2021/11/24 05:59:52;;;;;;;32.70;19.08;;;;;;;9.44;80.55;101095.69;5048286;28;20500;-20
2021/11/24 06:02:17;;;;;;;30.52;17.98;;;;;;;9.89;78.73;101102.72;5047983;28;20098;-21
2021/11/24 06:04:42;;;;;;;31.45;18.88;;;;;;;9.82;78.86;101106.16;5030257;28;20037;-20
2021/11/24 06:07:08;;;;;;;37.78;20.95;;;;;;;9.99;77.90;101109.41;5047864;28;20037;-21
2021/11/24 06:09:33;;;;;;;35.53;20.17;;;;;;;9.94;78.29;101117.13;5047874;28;20508;-21
2021/11/24 06:11:59;;;;;;;37.70;20.60;;;;;;;10.05;77.47;101118.47;5047741;28;20467;-20
2021/11/24 06:14:24;;;;;;;36.22;19.95;;;;;;;10.00;77.14;101118.22;5047390;28;20053;-20
2021/11/24 06:16:50;;;;;;;32.33;19.35;;;;;;;9.81;77.75;101111.69;5047991;28;20028;-20
2021/11/24 06:19:15;;;;;;;75.43;36.38;;;;;;;9.52;78.94;101140.03;5047444;28;20489;-21
2021/11/24 06:21:41;;;;;;;55.05;30.65;;;;;;;9.47;78.60;101137.09;5047933;28;20025;-21
2021/11/24 06:24:06;;;;;;;53.15;30.60;;;;;;;9.56;78.57;101149.31;5047904;28;20409;-21
2021/11/24 06:26:32;;;;;;;112.28;58.20;;;;;;;9.73;78.69;101146.44;5029477;28;20044;-20
2021/11/24 06:28:57;;;;;;;118.93;60.15;;;;;;;10.16;76.92;101149.16;5047516;28;20432;-21
2021/11/24 06:31:25;;;;;;;41.08;23.23;;;;;;;9.90;77.81;101152.34;5050142;28;20033;-21
2021/11/24 06:33:51;;;;;;;;;;;;;;;9.63;79.10;101158.19;5051537;28;20094;-20
2021/11/24 06:36:16;;;;;;;37.00;26.13;;;;;;;9.36;79.30;101145.56;5050883;28;20344;-20
2021/11/24 06:38:42;;;;;;;41.40;27.95;;;;;;;9.44;79.75;101150.78;5051018;28;20090;-21
2021/11/24 06:41:07;;;;;;;42.47;27.63;;;;;;;9.53;80.58;101162.16;5050951;28;20033;-21
2021/11/24 06:43:33;;;;;;;119.38;63.88;;;;;;;9.74;79.35;101164.03;5053465;28;20037;-20
2021/11/24 06:45:59;;;;;;;72.75;49.38;;;;;;;9.55;79.31;101155.63;5050744;28;20064;-20
2021/11/24 06:48:24;;;;;;;48.35;30.17;;;;;;;9.28;80.69;101169.59;5032494;28;20087;-21
2021/11/24 06:50:50;;;;;;;35.47;23.60;;;;;;;9.32;80.35;101171.72;5050596;28;20436;-21
2021/11/24 06:53:15;;;;;;;41.45;25.98;;;;;;;9.51;79.61;101170.31;5050532;28;20025;-21
2021/11/24 06:55:41;;;;;;;41.25;25.98;;;;;;;9.21;80.80;101172.16;5050560;28;20104;-21
2021/11/24 06:58:06;;;;;;;28.38;16.55;;;;;;;9.10;80.78;101160.13;5050450;28;20098;-21
2021/11/24 07:00:32;;;;;;;25.65;15.23;;;;;;;9.52;79.28;101171.13;5050005;28;20769;-20
2021/11/24 07:02:57;;;;;;;27.70;17.10;;;;;;;9.61;78.81;101186.03;5050449;28;20025;-22
2021/11/24 07:05:23;;;;;;;47.50;28.45;;;;;;;9.48;80.01;101173.38;5050329;28;20044;-21
2021/11/24 07:07:49;;;;;;;382.92;181.75;;;;;;;9.41;75.97;101170.59;5032357;28;20417;-21
2021/11/24 07:10:14;;;;;;;134.13;72.50;;;;;;;9.30;77.89;101179.06;5050245;28;20033;-21
2021/11/24 07:12:39;;;;;;;29.10;16.55;;;;;;;9.12;78.21;101166.09;5050427;28;20036;-21
2021/11/24 07:15:06;;;;;;;30.13;16.73;;;;;;;9.14;79.49;101185.38;5032474;28;20825;-20
2021/11/24 07:17:31;;;;;;;24.60;15.05;;;;;;;8.99;80.91;101184.50;5050208;28;20021;-20
2021/11/24 07:19:57;;;;;;;30.65;15.93;;;;;;;9.20;78.27;101187.28;5050043;28;20495;-21
2021/11/24 07:22:22;;;;;;;27.60;15.25;;;;;;;9.14;78.68;101196.00;5050106;28;20025;-20
2021/11/24 07:24:48;;;;;;;45.40;23.73;;;;;;;9.30;76.62;101194.19;5049987;28;20481;-21
2021/11/24 07:27:13;;;;;;;71.80;38.03;;;;;;;9.10;78.28;101200.03;5050099;28;20033;-20
2021/11/24 07:29:39;;;;;;;55.17;30.42;;;;;;;9.37;77.50;101200.44;5049921;28;20029;-20
2021/11/24 07:32:05;;;;;;;39.35;19.05;;;;;;;9.26;76.02;101196.41;5050007;28;20071;-20
2021/11/24 07:34:30;;;;;;;34.92;18.20;;;;;;;9.07;76.74;101189.75;5049476;28;20033;-21
2021/11/24 07:36:56;;;;;;;23.58;13.15;;;;;;;8.50;78.09;101198.22;5032305;28;20029;-20
2021/11/24 07:39:22;;;;;;;21.63;12.35;;;;;;;8.32;78.36;101206.47;5049795;28;20036;-20
2021/11/24 07:41:47;;;;;;;19.17;10.90;;;;;;;8.35;77.54;101200.78;5049677;28;20033;-20
2021/11/24 07:44:12;;;;;;;20.73;10.88;;;;;;;8.45;77.48;101198.75;5049386;28;20029;-20
2021/11/24 07:46:38;;;;;;;18.98;10.75;;;;;;;8.33;77.08;101202.78;5049825;28;20025;-20
2021/11/24 07:49:03;;;;;;;21.80;10.65;;;;;;;8.25;77.68;101211.63;5049733;28;20409;-21
2021/11/24 07:51:29;;;;;;;20.60;10.38;;;;;;;8.26;75.81;101192.03;5015516;28;20032;-20
2021/11/24 07:53:54;;;;;;;23.50;12.13;;;;;;;8.38;76.21;101201.25;5049024;28;20032;-20
2021/11/24 07:56:22;;;;;;;27.33;14.50;;;;;;;8.61;75.78;101200.47;5049214;28;20033;-20
2021/11/24 07:58:47;;;;;;;25.35;12.30;;;;;;;8.54;74.79;101204.81;5031686;28;20033;-21
2021/11/24 08:01:13;;;;;;;21.42;10.93;;;;;;;8.50;75.10;101196.41;5031604;28;20872;-20
2021/11/24 08:03:38;;;;;;;22.10;9.50;;;;;;;8.14;76.08;101198.75;5049269;28;20028;-21
2021/11/24 08:06:04;;;;;;;16.48;8.50;;;;;;;8.11;75.61;101204.41;5049556;28;20047;-20
2021/11/24 08:08:29;;;;;;;19.02;9.10;;;;;;;8.49;75.40;101201.88;5048968;28;20033;-20
2021/11/24 08:10:55;;;;;;;14.82;8.82;;;;;;;8.37;75.29;101201.44;5031401;28;20025;-21
2021/11/24 08:13:21;;;;;;;14.80;8.57;;;;;;;8.20;75.13;101198.88;5049014;28;20037;-21
2021/11/24 08:15:47;;;;;;;16.98;8.65;;;;;;;8.25;76.02;101211.63;5049281;28;20052;-21
2021/11/24 08:18:13;;;;;;;16.98;9.73;;;;;;;8.39;74.50;101207.41;5031200;28;20024;-20
2021/11/24 08:20:38;;;;;;;11.63;6.57;;;;;;;8.22;72.92;101214.66;5049189;28;20505;-20
2021/11/24 08:23:04;;;;;;;12.52;6.53;;;;;;;8.10;73.40;101210.75;5048990;28;20028;-21
2021/11/24 08:25:29;;;;;;;14.80;7.60;;;;;;;8.00;74.23;101210.94;5049182;28;20471;-21
2021/11/24 08:27:55;;;;;;;14.93;7.18;;;;;;;7.86;73.73;101212.50;5049073;28;20036;-20
2021/11/24 08:30:22;;;;;;;13.57;6.05;;;;;;;8.13;71.85;101213.03;5048880;28;20470;-20
2021/11/24 08:32:51;;;;;;;11.35;6.43;;;;;;;8.07;73.23;101219.91;5048636;28;20024;-20
2021/11/24 08:35:17;;;;;;;11.88;6.72;;;;;;;7.89;72.42;101212.16;5048811;28;20036;-20
2021/11/24 08:37:42;;;;;;;12.52;6.35;;;;;;;7.94;72.98;101219.59;5048864;28;20029;-20
2021/11/24 08:40:08;;;;;;;10.52;6.07;;;;;;;7.92;72.35;101217.13;5048741;28;20025;-21
2021/11/24 08:42:34;;;;;;;27.33;14.32;;;;;;;8.00;73.32;101203.78;5048784;28;20106;-20
2021/11/24 08:44:59;;;;;;;10.82;5.72;;;;;;;7.90;73.02;101203.19;5048557;28;20041;-20
2021/11/24 08:47:25;;;;;;;12.10;6.70;;;;;;;7.94;72.25;101212.47;5031285;28;20035;-21
2021/11/24 08:49:50;;;;;;;15.48;7.53;;;;;;;8.09;74.46;101207.25;5048717;28;20095;-20
2021/11/24 08:52:16;;;;;;;12.00;6.63;;;;;;;8.16;72.26;101212.69;5048231;28;20037;-20
2021/11/24 08:54:42;;;;;;;10.85;6.05;;;;;;;8.37;71.96;101218.19;5048001;28;20033;-20
2021/11/24 08:57:07;;;;;;;11.25;6.32;;;;;;;8.29;71.52;101191.66;5048331;28;20028;-20
2021/11/24 08:59:33;;;;;;;9.27;5.63;;;;;;;8.25;74.19;101217.78;5048445;28;20047;-21
2021/11/24 09:01:58;;;;;;;9.82;5.57;;;;;;;8.58;71.95;101214.09;5048395;28;20183;-21
2021/11/24 09:04:24;;;;;;;11.13;6.10;;;;;;;8.40;73.08;101209.88;5048405;28;20029;-21
2021/11/24 09:06:49;;;;;;;10.90;6.50;;;;;;;8.46;74.07;101213.72;5030605;28;20036;-21
2021/11/24 09:09:14;;;;;;;13.95;7.22;;;;;;;9.01;71.13;101199.31;5048782;28;20044;-20
2021/11/24 09:11:40;;;;;;;48.50;23.95;;;;;;;9.04;69.19;101206.91;5048281;28;20032;-20
2021/11/24 09:14:06;;;;;;;41.63;21.33;;;;;;;9.02;69.78;101211.59;5030356;28;20033;-20
2021/11/24 09:16:31;;;;;;;11.90;6.70;;;;;;;8.70;71.30;101207.34;5048007;28;20036;-20
2021/11/24 09:18:57;;;;;;;10.23;5.18;;;;;;;8.93;71.33;101193.19;5048044;28;20565;-20
2021/11/24 09:21:23;;;;;;;11.65;5.72;;;;;;;8.81;72.01;101203.47;5048108;28;20029;-21
2021/11/24 09:23:50;;;;;;;12.98;6.22;;;;;;;8.98;71.21;101196.16;5047934;28;20039;-20
2021/11/24 09:28:53;;;;;;;51.25;24.83;;;;;;;9.29;68.73;101196.00;5048175;28;20047;-21
2021/11/24 09:31:19;;;;;;;9.93;5.05;;;;;;;8.99;68.10;101181.84;5048050;28;20041;-21
2021/11/24 09:33:45;;;;;;;10.38;4.57;;;;;;;9.23;64.07;101189.59;5048172;28;20037;-20
2021/11/24 09:36:12;;;;;;;36.63;16.83;;;;;;;9.31;59.45;101185.19;5047790;28;20123;-20
2021/11/24 09:38:38;;;;;;;16.65;8.52;;;;;;;9.47;60.00;101185.00;5047956;28;20519;-20
2021/11/24 09:41:05;;;;;;;9.73;5.25;;;;;;;9.70;59.87;101192.06;5047944;28;20040;-20
2021/11/24 09:43:34;;;;;;;30.60;15.37;;;;;;;9.82;57.65;101190.56;5048036;28;20421;-20
2021/11/24 09:46:00;;;;;;;50.25;26.20;;;;;;;9.39;56.87;101187.75;5048205;28;20037;-20
2021/11/24 09:48:25;;;;;;;37.15;20.40;;;;;;;9.58;58.77;101187.22;5013480;28;20142;-20
2021/11/24 09:50:51;;;;;;;52.80;28.25;;;;;;;9.74;57.82;101172.84;5029945;28;20485;-20
2021/11/24 09:53:16;;;;;;;34.10;17.48;;;;;;;9.52;57.80;101182.63;5013461;28;20085;-20
2021/11/24 09:55:42;;;;;;;37.65;19.63;;;;;;;9.17;56.87;101170.84;5047887;28;20033;-20
2021/11/24 09:58:08;;;;;;;23.95;13.20;;;;;;;9.67;58.34;101185.28;5047672;28;20454;-20
2021/11/24 10:00:34;;;;;;;65.03;31.85;;;;;;;9.96;56.30;101181.72;5047501;28;20428;-20
2021/11/24 10:03:00;;;;;;;33.97;17.00;;;;;;;10.05;54.81;101169.97;5047867;28;20136;-20
2021/11/24 10:05:26;;;;;;;10.52;5.60;;;;;;;10.08;57.08;101165.28;5032651;28;20112;-20
2021/11/24 10:07:52;;;;;;;45.70;23.60;;;;;;;10.42;55.75;101183.25;5051549;28;20062;-20
2021/11/24 10:10:17;;;;;;;15.82;6.75;;;;;;;10.46;54.55;101176.53;5051164;28;20124;-20
2021/11/24 10:12:43;;;;;;;23.88;9.98;;;;;;;10.33;54.88;101163.09;5051623;28;20098;-20
2021/11/24 10:15:11;;;;;;;63.67;25.52;;;;;;;10.18;54.21;101166.59;5051454;28;20599;-20
2021/11/24 10:17:36;;;;;;;;;;;;;;;10.20;54.99;101177.09;5051709;28;20029;-20
2021/11/24 10:20:08;;;;;;;77.00;32.60;;;;;;;10.47;55.80;101172.88;5051296;28;19913;-20
2021/11/24 10:22:35;;;;;;;16.52;8.57;;;;;;;10.69;53.69;101173.69;5051057;28;20508;-21
2021/11/24 10:25:11;;;;;;;17.95;9.48;;;;;;;10.67;53.79;101170.38;5051460;28;20052;-20
2021/11/24 10:27:48;;;;;;;18.85;10.00;;;;;;;10.71;52.18;101160.97;5051113;28;20104;-20
2021/11/24 10:30:29;;;;;;;9.27;5.68;;;;;;;10.02;55.37;101145.53;5051301;28;20036;-20
2021/11/24 10:32:55;;;;;;;5.35;3.10;;;;;;;10.27;52.65;101159.31;5051138;28;20033;-20
2021/11/24 10:35:27;;;;;;;36.22;19.17;;;;;;;10.11;53.11;101136.38;5033559;28;20093;-21
2021/11/24 10:38:15;;;;;;;126.53;45.85;;;;;;;10.50;51.99;101158.31;5051010;28;20056;-20
2021/11/24 10:40:45;;;;;;;20.15;10.82;;;;;;;10.66;51.86;101131.38;5033412;28;20021;-20
2021/11/24 10:43:12;;;;;;;19.48;12.88;;;;;;;10.78;51.90;101145.84;5033213;28;20048;-20
2021/11/24 10:45:38;;;;;;;14.98;9.45;;;;;;;10.52;52.04;101150.94;5050838;28;20029;-20
2021/11/24 10:48:03;;;;;;;22.45;14.68;;;;;;;10.08;52.91;101127.97;5016600;28;20047;-21
2021/11/24 10:50:31;;;;;;;26.80;16.88;;;;;;;10.37;54.07;101135.84;5050460;28;20082;-20
2021/11/24 10:52:57;;;;;;;96.22;53.95;;;;;;;10.33;51.98;101137.25;5050736;28;20488;-20
2021/11/24 10:55:24;;;;;;;47.22;25.63;;;;;;;10.55;52.65;101142.56;5050658;28;20037;-20
2021/11/24 10:58:16;;;;;;;9.90;5.27;;;;;;;10.32;52.32;101119.59;5033033;28;20150;-20
2021/11/24 11:00:43;;;;;;;41.95;24.05;;;;;;;10.44;51.32;101107.41;5034186;28;20049;-21
2021/11/24 11:03:09;;;;;;;26.80;13.13;;;;;;;10.49;50.32;101124.69;5050778;28;20029;-20
2021/11/24 11:05:35;;;;;;;930.88;413.67;;;;;;;11.26;50.75;101116.59;5050495;28;20037;-20
2021/11/24 11:08:06;;;;;;;962.22;399.42;;;;;;;10.84;52.11;101107.69;5050691;28;20039;-21
2021/11/24 11:10:40;;;;;;;48.78;25.02;;;;;;;10.60;50.32;101118.81;5050040;28;20036;-21
2021/11/24 11:13:07;;;;;;;28.05;16.33;;;;;;;10.77;51.23;101125.53;5050181;28;20032;-20
2021/11/24 11:15:35;;;;;;;7.13;3.75;;;;;;;10.63;51.11;101105.09;5049579;28;20152;-21
2021/11/24 11:18:01;;;;;;;7.07;4.47;;;;;;;11.31;50.36;101124.00;5050043;28;20033;-21